createdAt,value
2022-09-17T10:46:09.391Z,21
2022-09-17T10:51:36.089Z,21.4
2022-09-17T10:57:13.004Z,22.1
2022-09-17T11:02:56.769Z,23.5
2022-09-17T11:08:21.317Z,25.1
2022-09-17T11:13:57.616Z,26.6
2022-09-17T11:19:35.955Z,28.7
2022-09-17T11:25:15.938Z,31.4
2022-09-17T11:30:53.908Z,33.7
2022-09-17T11:36:32.532Z,34.3
2022-09-17T11:42:17.167Z,33.6
2022-09-17T11:47:39.452Z,32.6
2022-09-17T11:53:02.049Z,31.6
2022-09-17T11:58:26.134Z,30.3
2022-09-17T12:04:04.659Z,29.1
2022-09-17T12:09:43.887Z,27.9
2022-09-17T12:15:52.450Z,26.8
2022-09-17T12:21:57.124Z,25.8
2022-09-17T12:27:34.514Z,25.1
2022-09-17T12:33:16.135Z,24.3
2022-09-17T12:39:25.844Z,23.4
2022-09-17T12:45:03.921Z,22.7
2022-09-17T12:50:43.585Z,22
2022-09-17T12:56:21.216Z,21.6
2022-09-17T13:01:59.352Z,21.1
2022-09-17T13:07:56.632Z,20.6
2022-09-17T13:13:34.205Z,20.3
2022-09-17T13:19:50.859Z,20.1
2022-09-17T13:25:16.554Z,20.1
2022-09-17T13:30:54.419Z,20
2022-09-17T13:36:16.903Z,19.9
2022-09-17T13:41:57.021Z,19.8
2022-09-17T13:47:35.539Z,19.6
2022-09-17T13:53:13.521Z,19.6
2022-09-17T13:58:53.282Z,19.5
2022-09-17T14:04:16.217Z,19.4
2022-09-17T14:09:57.021Z,19.3
2022-09-17T14:15:36.879Z,19.1
2022-09-17T14:21:18.836Z,19.1
2022-09-17T14:26:56.895Z,18.9
2022-09-17T14:32:36.551Z,18.8
2022-09-17T14:38:14.367Z,18.6
2022-09-17T14:43:52.553Z,18.5
2022-09-17T14:49:32.643Z,18.4
2022-09-17T14:55:10.789Z,18.3
2022-09-17T18:04:29.613Z,17.1
2022-09-17T18:15:36.179Z,16.9
2022-09-17T18:21:20.666Z,16.9
2022-09-17T18:26:29.287Z,16.8
2022-09-17T18:32:13.163Z,16.8
2022-09-17T18:37:51.488Z,16.7
2022-09-17T18:43:57.587Z,16.7
2022-09-17T18:49:35.871Z,16.6
2022-09-17T18:55:03.785Z,16.5
2022-09-17T19:00:43.632Z,16.4
2022-09-17T19:06:21.715Z,16.3
2022-09-17T19:11:59.071Z,16.3
2022-09-17T19:17:38.649Z,16.2
2022-09-17T19:23:03.529Z,16.1
2022-09-17T19:28:40.862Z,16
2022-09-17T19:34:21.775Z,16
2022-09-17T19:40:00.078Z,15.9
2022-09-17T19:45:06.243Z,15.8
2022-09-17T19:50:30.974Z,15.8
2022-09-17T19:56:08.818Z,15.6
2022-09-17T20:01:49.436Z,15.4
2022-09-17T20:07:14.471Z,15.3
2022-09-17T20:12:41.899Z,15.3
2022-09-17T20:18:03.872Z,15.3
2022-09-17T20:23:47.087Z,15.3
2022-09-17T20:29:09.098Z,15.3
2022-09-17T20:34:52.352Z,15.3
2022-09-17T20:42:09.121Z,15.3
2022-09-17T20:47:47.141Z,15.2
2022-09-17T20:53:25.091Z,15.3
2022-09-17T20:58:33.903Z,15.4
2022-09-17T21:04:12.272Z,15.3
2022-09-17T21:09:34.780Z,15.4
2022-09-17T21:15:19.839Z,15.4
2022-09-17T21:20:58.443Z,15.4
2022-09-17T21:26:36.604Z,15.3
2022-09-17T21:32:00.744Z,15.2
2022-09-17T21:37:39.023Z,15.2
2022-09-17T21:43:08.182Z,15.2
2022-09-17T21:48:31.883Z,15.4
2022-09-17T21:53:53.212Z,15.9
2022-09-17T21:59:31.576Z,16.3
2022-09-17T22:05:14.244Z,16.8
2022-09-17T22:10:51.466Z,17.1
